Time;durP1;ratioP1;P1;durP2;ratioP2;P2;SDS_P1;SDS_P2;PMS_P1;PMS_P2;Temp;Humidity;BMP_temperature;BMP_pressure;BME280_temperature;BME280_humidity;BME280_pressure;Samples;Min_cycle;Max_cycle;Signal;HPM_P1;HPM_P2
2023/09/17 00:00:45;;;;;;;18.65;16.95;;;15.50;99.90;;;;;;6082940;23;20120;-70
2023/09/17 00:03:13;;;;;;;19.63;17.85;;;15.50;99.90;;;;;;6110358;23;20022;-70
2023/09/17 00:05:39;;;;;;;19.02;17.30;;;15.50;99.90;;;;;;6111957;23;20013;-70
2023/09/17 00:08:04;;;;;;;19.00;17.20;;;15.50;99.90;;;;;;6083985;23;20407;-70
2023/09/17 00:10:31;;;;;;;18.50;16.67;;;15.50;99.90;;;;;;6084650;23;20313;-70
2023/09/17 00:12:56;;;;;;;19.20;17.55;;;15.50;99.90;;;;;;6084424;23;20445;-70
2023/09/17 00:15:25;;;;;;;19.23;17.60;;;15.40;99.90;;;;;;6086941;23;20029;-70
2023/09/17 00:17:51;;;;;;;19.38;17.67;;;15.40;99.90;;;;;;6084955;23;20466;-70
2023/09/17 00:20:17;;;;;;;18.98;17.17;;;15.50;99.90;;;;;;6083552;23;20022;-70
2023/09/17 00:22:44;;;;;;;22.05;17.60;;;15.50;99.90;;;;;;6084258;23;20044;-70
2023/09/17 00:25:09;;;;;;;19.25;17.48;;;15.40;99.90;;;;;;6086431;23;20029;-70
2023/09/17 00:27:35;;;;;;;20.88;18.73;;;15.40;99.90;;;;;;6084938;23;20018;-70
2023/09/17 00:30:00;;;;;;;19.83;17.83;;;15.30;99.90;;;;;;6084854;23;20026;-70
2023/09/17 00:32:26;;;;;;;20.60;18.63;;;15.30;99.90;;;;;;6084470;23;20021;-70
2023/09/17 00:34:51;;;;;;;19.90;17.90;;;15.30;99.90;;;;;;6087513;23;20076;-70
2023/09/17 00:37:18;;;;;;;20.42;18.45;;;15.30;99.90;;;;;;6109866;23;20018;-70
2023/09/17 00:39:44;;;;;;;20.20;18.23;;;15.30;99.90;;;;;;6083717;23;20026;-70
2023/09/17 00:42:10;;;;;;;19.75;17.85;;;15.20;99.90;;;;;;6085884;23;20029;-70
2023/09/17 00:44:35;;;;;;;20.70;18.67;;;15.20;99.90;;;;;;6086666;23;20018;-70
2023/09/17 00:47:04;;;;;;;21.45;19.45;;;15.20;99.90;;;;;;6088498;23;20013;-70
2023/09/17 00:49:31;;;;;;;21.38;19.55;;;15.20;99.90;;;;;;6115369;23;20014;-70
2023/09/17 00:51:57;;;;;;;21.65;19.77;;;15.20;99.90;;;;;;6088168;23;20085;-70
2023/09/17 00:54:26;;;;;;;22.42;20.42;;;15.10;99.90;;;;;;6088215;23;20146;-70
2023/09/17 00:56:52;;;;;;;21.45;19.38;;;15.00;99.90;;;;;;6115167;23;20664;-71
2023/09/17 00:59:18;;;;;;;22.95;20.95;;;15.00;99.90;;;;;;6109620;23;20041;-70
2023/09/17 01:01:45;;;;;;;22.52;20.23;;;15.00;99.90;;;;;;6086952;23;20107;-70
2023/09/17 01:04:13;;;;;;;23.40;21.17;;;14.90;99.90;;;;;;6085438;23;20018;-70
2023/09/17 01:06:40;;;;;;;22.25;20.25;;;14.90;99.90;;;;;;6110031;23;20432;-70
2023/09/17 01:09:07;;;;;;;21.38;19.58;;;14.90;99.90;;;;;;6083102;23;20025;-70
2023/09/17 01:11:34;;;;;;;21.90;19.88;;;14.90;99.90;;;;;;6111136;23;20018;-70
2023/09/17 01:14:15;;;;;;;22.30;20.25;;;14.90;99.90;;;;;;6086407;23;20021;-70
2023/09/17 01:16:47;;;;;;;22.35;20.02;;;14.80;99.90;;;;;;6108775;23;20068;-70
2023/09/17 01:19:23;;;;;;;22.83;20.50;;;14.80;99.90;;;;;;6109598;23;20018;-70
2023/09/17 01:22:01;;;;;;;21.88;19.80;;;14.80;99.90;;;;;;6083503;23;20025;-70
2023/09/17 01:25:05;;;;;;;20.95;18.95;;;14.80;99.90;;;;;;6085406;23;20322;-70
2023/09/17 01:27:35;;;;;;;23.33;21.23;;;14.90;99.90;;;;;;6084768;23;20534;-70
2023/09/17 01:30:03;;;;;;;22.25;20.20;;;14.90;99.90;;;;;;6086565;23;20014;-70
2023/09/17 01:32:28;;;;;;;22.27;20.27;;;14.80;99.90;;;;;;6110885;23;20010;-70
2023/09/17 01:34:54;;;;;;;22.83;20.65;;;14.90;99.90;;;;;;6085665;23;20349;-70
2023/09/17 01:37:36;;;;;;;23.92;21.70;;;14.90;99.90;;;;;;6085546;23;20471;-70
2023/09/17 01:40:11;;;;;;;23.20;21.08;;;15.20;99.90;;;;;;6085374;23;20064;-70
2023/09/17 01:42:40;;;;;;;24.63;22.33;;;14.90;99.90;;;;;;6061265;23;20453;-70
2023/09/17 01:45:09;;;;;;;23.73;21.63;;;15.00;99.90;;;;;;6085403;23;20084;-70
2023/09/17 01:47:35;;;;;;;23.60;21.38;;;15.00;99.90;;;;;;6113142;23;20018;-70
2023/09/17 01:50:04;;;;;;;22.67;20.58;;;15.00;99.90;;;;;;6113864;23;20018;-70
2023/09/17 01:52:32;;;;;;;23.02;21.02;;;15.00;99.90;;;;;;6088948;23;20041;-70
2023/09/17 01:55:00;;;;;;;24.83;22.23;;;15.00;99.90;;;;;;6082233;23;20478;-70
2023/09/17 01:57:25;;;;;;;23.65;21.45;;;15.00;99.90;;;;;;6062198;23;20029;-70
2023/09/17 01:59:51;;;;;;;24.30;22.00;;;15.00;99.90;;;;;;6087985;23;20022;-70
2023/09/17 02:02:17;;;;;;;22.80;20.60;;;15.00;99.90;;;;;;6087853;23;20025;-70
2023/09/17 02:04:42;;;;;;;23.83;21.65;;;15.00;99.90;;;;;;6087856;23;20026;-70
2023/09/17 02:07:08;;;;;;;23.10;21.00;;;15.10;99.90;;;;;;6114085;23;20063;-70
2023/09/17 02:09:34;;;;;;;23.40;21.13;;;15.00;99.90;;;;;;6087674;23;20028;-70
2023/09/17 02:12:00;;;;;;;21.75;19.85;;;15.00;99.90;;;;;;6088613;23;20018;-70
2023/09/17 02:14:25;;;;;;;22.63;20.63;;;14.90;99.90;;;;;;6088658;23;20025;-70
2023/09/17 02:16:52;;;;;;;23.75;21.45;;;14.90;99.90;;;;;;6088505;23;20075;-70
2023/09/17 02:19:17;;;;;;;25.10;22.55;;;14.90;99.90;;;;;;6087853;23;20018;-70
2023/09/17 02:21:43;;;;;;;24.33;21.83;;;15.00;99.90;;;;;;6088755;23;20093;-70
2023/09/17 02:24:09;;;;;;;24.13;22.02;;;14.90;99.90;;;;;;6087850;23;20022;-70
2023/09/17 02:26:35;;;;;;;24.42;22.13;;;14.90;99.90;;;;;;6116502;23;20067;-69
2023/09/17 02:29:00;;;;;;;24.08;21.88;;;14.90;99.90;;;;;;6089110;23;20821;-70
2023/09/17 02:31:27;;;;;;;24.45;22.35;;;15.50;99.90;;;;;;6090619;23;20071;-70
2023/09/17 02:33:53;;;;;;;25.40;23.13;;;15.00;99.90;;;;;;6088527;23;20018;-70
2023/09/17 02:36:18;;;;;;;25.92;23.50;;;14.90;99.90;;;;;;6085801;23;20068;-70
2023/09/17 02:38:45;;;;;;;24.73;22.40;;;14.90;99.90;;;;;;6085906;23;20026;-70
2023/09/17 02:41:10;;;;;;;25.73;23.23;;;14.90;99.90;;;;;;6112176;23;20085;-70
2023/09/17 02:43:37;;;;;;;25.27;22.85;;;14.90;99.90;;;;;;6112827;23;20061;-70
2023/09/17 02:46:06;;;;;;;24.60;22.50;;;14.90;99.90;;;;;;6086802;23;20451;-70
2023/09/17 02:48:32;;;;;;;24.70;22.50;;;14.90;99.90;;;;;;6086633;23;20026;-70
2023/09/17 02:50:58;;;;;;;26.65;24.20;;;14.90;99.90;;;;;;6086833;23;20340;-70
2023/09/17 02:53:24;;;;;;;24.85;22.55;;;14.90;99.90;;;;;;6087866;23;20025;-70
2023/09/17 02:55:49;;;;;;;24.98;22.63;;;14.90;99.90;;;;;;6085014;23;20022;-70
2023/09/17 02:58:15;;;;;;;25.20;22.80;;;14.90;99.90;;;;;;6084914;23;20018;-70
2023/09/17 03:00:43;;;;;;;24.83;22.52;;;14.90;99.90;;;;;;6084235;23;20026;-70
2023/09/17 03:03:08;;;;;;;25.52;23.08;;;14.80;99.90;;;;;;6112987;23;20017;-70
2023/09/17 03:05:34;;;;;;;26.08;23.67;;;14.90;99.90;;;;;;6085183;23;20022;-70
2023/09/17 03:08:00;;;;;;;28.38;25.50;;;14.90;99.90;;;;;;6085572;23;20022;-70
2023/09/17 03:10:26;;;;;;;27.65;24.98;;;14.90;99.90;;;;;;6109820;23;20807;-70
2023/09/17 03:12:52;;;;;;;28.08;25.48;;;14.80;99.90;;;;;;6112477;23;20360;-70
2023/09/17 03:15:18;;;;;;;27.40;25.00;;;14.80;99.90;;;;;;6086281;23;20053;-70
2023/09/17 03:17:43;;;;;;;26.00;23.77;;;14.80;99.90;;;;;;6110349;23;20050;-70
2023/09/17 03:20:22;;;;;;;27.63;24.95;;;14.80;99.90;;;;;;6084846;23;20018;-70
2023/09/17 03:22:48;;;;;;;27.23;24.65;;;14.90;99.90;;;;;;6084450;23;20105;-70
2023/09/17 03:25:14;;;;;;;26.42;24.13;;;14.80;99.90;;;;;;6086334;23;20029;-70
2023/09/17 03:27:43;;;;;;;26.83;24.23;;;14.90;99.90;;;;;;6084937;23;20014;-70
2023/09/17 03:30:09;;;;;;;28.80;26.17;;;14.90;99.90;;;;;;6082176;23;20025;-70
2023/09/17 03:32:35;;;;;;;28.50;25.85;;;14.90;99.90;;;;;;6084022;23;20022;-71
2023/09/17 03:35:01;;;;;;;29.52;26.83;;;14.90;99.90;;;;;;6088904;23;20460;-70
2023/09/17 03:37:27;;;;;;;30.40;27.35;;;14.90;99.90;;;;;;6089878;23;20021;-69
2023/09/17 03:40:14;;;;;;;28.70;25.90;;;14.90;99.90;;;;;;6088939;23;20033;-69
2023/09/17 03:42:41;;;;;;;29.23;26.58;;;15.00;99.90;;;;;;6090393;23;20064;-70
2023/09/17 03:45:09;;;;;;;29.38;26.45;;;14.90;99.90;;;;;;6090027;23;20018;-70
2023/09/17 03:47:39;;;;;;;28.02;25.48;;;15.00;99.90;;;;;;6090009;23;20139;-70
2023/09/17 03:50:06;;;;;;;27.23;24.77;;;15.00;99.90;;;;;;6114726;23;20024;-70
2023/09/17 03:52:39;;;;;;;27.98;25.20;;;15.10;99.90;;;;;;6115536;23;20095;-70
2023/09/17 03:55:05;;;;;;;30.65;27.58;;;15.10;99.90;;;;;;6089644;23;20030;-70
2023/09/17 03:57:34;;;;;;;28.50;25.60;;;15.10;99.90;;;;;;6090392;23;20018;-70
2023/09/17 03:59:59;;;;;;;29.10;26.35;;;15.20;99.90;;;;;;6114495;23;20036;-70
2023/09/17 04:02:25;;;;;;;26.77;24.38;;;15.20;99.90;;;;;;6084215;23;20026;-70
2023/09/17 04:04:51;;;;;;;28.27;25.48;;;15.10;99.90;;;;;;6085155;23;20056;-70
2023/09/17 04:07:16;;;;;;;30.13;26.83;;;15.20;99.90;;;;;;6086579;23;20048;-70
2023/09/17 04:09:42;;;;;;;26.90;24.58;;;15.30;99.90;;;;;;6084735;23;20033;-70
2023/09/17 04:12:08;;;;;;;30.08;27.08;;;15.30;99.90;;;;;;6083728;23;20025;-70
2023/09/17 04:14:34;;;;;;;29.40;26.52;;;15.30;99.90;;;;;;6085540;23;20026;-70
2023/09/17 04:17:02;;;;;;;29.35;26.45;;;15.30;99.90;;;;;;6110378;23;20021;-70
2023/09/17 04:19:31;;;;;;;28.23;25.63;;;15.30;99.90;;;;;;6059089;23;20045;-70
2023/09/17 04:21:57;;;;;;;30.83;27.60;;;15.30;99.90;;;;;;6082685;23;20025;-69
2023/09/17 04:24:23;;;;;;;30.75;27.85;;;15.30;99.90;;;;;;6085791;23;20026;-70
2023/09/17 04:26:49;;;;;;;29.40;26.52;;;15.40;99.90;;;;;;6110075;23;20318;-70
2023/09/17 04:29:15;;;;;;;30.48;27.55;;;15.40;99.90;;;;;;6082368;23;20025;-70
2023/09/17 04:31:41;;;;;;;29.10;26.35;;;15.40;99.90;;;;;;6080987;23;20029;-70
2023/09/17 04:34:06;;;;;;;30.50;27.17;;;15.40;99.90;;;;;;6083224;23;20704;-70
2023/09/17 04:36:32;;;;;;;30.60;27.65;;;15.30;99.90;;;;;;6111242;23;20018;-70
2023/09/17 04:38:57;;;;;;;31.02;27.92;;;15.30;99.90;;;;;;6062327;23;20360;-70
2023/09/17 04:41:23;;;;;;;28.33;25.67;;;15.30;99.90;;;;;;6064940;23;20368;-70
2023/09/17 04:43:49;;;;;;;31.77;28.77;;;15.30;99.90;;;;;;6090050;23;20409;-70
2023/09/17 04:46:14;;;;;;;31.38;28.58;;;15.30;99.90;;;;;;6115423;23;20080;-70
2023/09/17 04:48:40;;;;;;;31.48;28.38;;;15.40;99.90;;;;;;6115113;23;20049;-69
2023/09/17 04:51:06;;;;;;;30.67;27.77;;;15.30;99.90;;;;;;6115927;23;20018;-70
2023/09/17 04:53:32;;;;;;;32.10;29.15;;;15.40;99.90;;;;;;6090408;23;20024;-70
2023/09/17 04:55:58;;;;;;;33.42;30.17;;;15.40;99.90;;;;;;6090593;23;20049;-70
2023/09/17 04:58:24;;;;;;;32.58;29.55;;;15.30;99.90;;;;;;6090079;23;20026;-70
2023/09/17 05:00:56;;;;;;;32.17;29.17;;;15.30;99.90;;;;;;6089898;23;20022;-70
2023/09/17 05:03:21;;;;;;;31.40;28.35;;;15.30;99.90;;;;;;6089048;23;20022;-70
2023/09/17 05:05:49;;;;;;;33.10;29.80;;;15.40;99.90;;;;;;6107663;23;20014;-70
2023/09/17 05:08:16;;;;;;;31.73;28.58;;;15.30;99.90;;;;;;6082949;23;20014;-70
2023/09/17 05:10:43;;;;;;;32.97;29.50;;;15.40;99.90;;;;;;6108253;23;20697;-70
2023/09/17 05:13:08;;;;;;;33.95;30.65;;;15.40;99.90;;;;;;6086169;23;20024;-70
2023/09/17 05:15:34;;;;;;;34.22;30.88;;;15.40;99.90;;;;;;6109867;23;20618;-70
2023/09/17 05:18:06;;;;;;;34.10;30.77;;;15.30;99.90;;;;;;6084293;23;20022;-70
2023/09/17 05:20:31;;;;;;;35.78;32.08;;;15.30;99.90;;;;;;6081199;23;20018;-70
2023/09/17 05:22:57;;;;;;;35.90;31.38;;;15.40;99.90;;;;;;6086016;23;20051;-70
2023/09/17 05:25:23;;;;;;;35.40;32.00;;;15.40;99.90;;;;;;6083740;23;20121;-69
2023/09/17 05:27:48;;;;;;;32.22;28.92;;;15.30;99.90;;;;;;6081804;23;20022;-70
2023/09/17 05:30:14;;;;;;;36.00;32.38;;;15.30;99.90;;;;;;6085313;23;20060;-70
2023/09/17 05:32:39;;;;;;;34.05;30.70;;;15.40;99.90;;;;;;6084980;23;20025;-70
2023/09/17 05:35:07;;;;;;;35.75;31.95;;;15.40;99.90;;;;;;6083146;23;20018;-70
2023/09/17 05:37:32;;;;;;;37.67;33.67;;;15.40;99.90;;;;;;6108668;23;20328;-70
2023/09/17 05:39:58;;;;;;;38.35;34.20;;;15.40;99.90;;;;;;6110518;23;20080;-70
2023/09/17 05:42:24;;;;;;;40.05;35.20;;;15.40;99.90;;;;;;6081564;23;20173;-70
2023/09/17 05:44:49;;;;;;;38.20;34.10;;;15.40;99.90;;;;;;6108422;23;20022;-69
2023/09/17 05:47:15;;;;;;;37.28;33.45;;;15.40;99.90;;;;;;6084716;23;20014;-69
2023/09/17 05:49:41;;;;;;;38.58;34.55;;;15.50;99.90;;;;;;6114897;23;20091;-70
2023/09/17 05:52:06;;;;;;;36.45;32.60;;;15.50;99.90;;;;;;6089394;23;20018;-70
2023/09/17 05:54:32;;;;;;;38.53;34.35;;;15.60;99.90;;;;;;6088092;23;20022;-69
2023/09/17 05:56:58;;;;;;;37.80;34.00;;;15.60;99.90;;;;;;6087991;23;20024;-70
2023/09/17 05:59:23;;;;;;;38.15;34.17;;;15.70;99.90;;;;;;6083266;23;20028;-70
2023/09/17 06:01:50;;;;;;;38.03;33.97;;;15.70;99.90;;;;;;6088524;23;20052;-70
2023/09/17 06:04:15;;;;;;;37.67;33.75;;;15.70;99.90;;;;;;6088911;23;20014;-70
2023/09/17 06:06:41;;;;;;;37.95;34.05;;;15.80;99.90;;;;;;6088006;23;20014;-70
2023/09/17 06:09:06;;;;;;;36.70;32.78;;;15.90;99.90;;;;;;6109112;23;20071;-69
2023/09/17 06:11:32;;;;;;;36.90;33.17;;;15.90;99.90;;;;;;6083212;23;20018;-69
2023/09/17 06:13:57;;;;;;;37.00;32.53;;;15.90;99.90;;;;;;6084433;23;20033;-69
2023/09/17 06:16:23;;;;;;;35.97;32.33;;;16.00;99.90;;;;;;6082691;23;20030;-69
2023/09/17 06:18:49;;;;;;;34.25;30.92;;;16.00;99.90;;;;;;6109965;23;20488;-69
2023/09/17 06:21:14;;;;;;;34.40;30.60;;;16.10;99.90;;;;;;6084390;23;20022;-70
2023/09/17 06:23:40;;;;;;;34.40;31.00;;;16.10;99.90;;;;;;6089430;23;20125;-69
2023/09/17 06:26:07;;;;;;;32.38;29.15;;;16.20;99.90;;;;;;6089652;23;20018;-69
2023/09/17 06:28:33;;;;;;;32.38;28.92;;;16.40;99.90;;;;;;6115873;23;20044;-69
2023/09/17 06:30:59;;;;;;;34.50;31.08;;;16.30;99.90;;;;;;6089380;23;20445;-70
2023/09/17 06:33:26;;;;;;;32.80;29.50;;;16.30;99.90;;;;;;6090327;23;20034;-70
2023/09/17 06:35:52;;;;;;;33.17;29.95;;;16.40;99.90;;;;;;6089413;23;20018;-69
2023/09/17 06:38:17;;;;;;;32.13;28.92;;;16.50;99.90;;;;;;6115526;23;20085;-69
2023/09/17 06:40:43;;;;;;;32.78;29.60;;;16.50;99.90;;;;;;6116172;23;20037;-69
2023/09/17 06:43:08;;;;;;;32.58;29.33;;;16.50;99.90;;;;;;6092557;23;20021;-69
2023/09/17 06:45:34;;;;;;;30.55;27.55;;;16.60;99.90;;;;;;6117525;23;20037;-70
2023/09/17 06:48:00;;;;;;;30.08;27.02;;;16.60;99.90;;;;;;6092309;23;20071;-69
2023/09/17 06:50:25;;;;;;;29.55;26.63;;;16.70;99.90;;;;;;6088935;23;20148;-69
2023/09/17 06:52:51;;;;;;;31.60;28.45;;;16.70;99.90;;;;;;6089811;23;20455;-69
2023/09/17 06:55:16;;;;;;;26.55;24.00;;;16.70;99.90;;;;;;6090478;23;20111;-69
2023/09/17 06:57:43;;;;;;;27.67;25.08;;;16.80;99.90;;;;;;6117087;23;20437;-69
2023/09/17 07:00:09;;;;;;;28.67;25.98;;;16.90;99.90;;;;;;6117985;23;20021;-69
2023/09/17 07:02:35;;;;;;;27.35;24.75;;;16.90;99.90;;;;;;6119299;23;20328;-68
2023/09/17 07:05:03;;;;;;;28.35;25.63;;;16.90;99.90;;;;;;6117265;23;20045;-69
2023/09/17 07:07:29;;;;;;;27.13;24.67;;;17.00;99.90;;;;;;6091823;23;20014;-69
2023/09/17 07:09:55;;;;;;;28.42;25.48;;;17.00;99.90;;;;;;6091406;23;20013;-68
2023/09/17 07:12:21;;;;;;;27.55;24.85;;;17.00;99.90;;;;;;6092938;23;20314;-69
2023/09/17 07:14:46;;;;;;;26.45;23.88;;;17.00;99.90;;;;;;6118195;23;20109;-69
2023/09/17 07:17:12;;;;;;;26.83;24.23;;;17.10;99.90;;;;;;6092128;23;20134;-69
2023/09/17 07:19:38;;;;;;;26.52;24.33;;;17.10;99.90;;;;;;6092837;23;20025;-69
2023/09/17 07:22:04;;;;;;;27.00;24.70;;;17.10;99.90;;;;;;6119458;23;20437;-70
2023/09/17 07:24:29;;;;;;;27.10;24.33;;;17.10;99.90;;;;;;6092460;23;20013;-70
2023/09/17 07:26:55;;;;;;;27.08;24.50;;;17.00;99.90;;;;;;6092336;23;20432;-69
2023/09/17 07:29:20;;;;;;;26.63;24.13;;;17.00;99.90;;;;;;6118705;23;20041;-69
2023/09/17 07:31:48;;;;;;;27.35;24.70;;;17.40;99.90;;;;;;6092109;23;20028;-70
2023/09/17 07:34:14;;;;;;;26.42;24.00;;;17.10;99.90;;;;;;6092141;23;20060;-70
2023/09/17 07:36:39;;;;;;;28.20;25.30;;;17.10;99.90;;;;;;6091017;23;20014;-70
2023/09/17 07:39:05;;;;;;;28.02;25.52;;;17.10;99.90;;;;;;6088766;23;20033;-70
2023/09/17 07:41:31;;;;;;;28.70;25.90;;;17.20;99.90;;;;;;6117483;23;20087;-70
2023/09/17 07:43:57;;;;;;;28.17;25.42;;;17.20;99.90;;;;;;6092328;23;20348;-69
2023/09/17 07:46:22;;;;;;;29.27;26.40;;;17.30;99.90;;;;;;6117769;23;20026;-70
2023/09/17 07:48:49;;;;;;;26.65;24.25;;;17.30;99.90;;;;;;6091562;23;20029;-70
2023/09/17 07:51:16;;;;;;;26.98;24.50;;;17.20;99.90;;;;;;6067724;23;20018;-70
2023/09/17 07:53:41;;;;;;;26.40;23.88;;;17.20;99.90;;;;;;6091991;23;20451;-69
2023/09/17 07:56:07;;;;;;;27.88;25.25;;;17.30;99.90;;;;;;6119010;23;20014;-70
2023/09/17 07:58:33;;;;;;;26.40;23.98;;;17.30;99.90;;;;;;6118184;23;20025;-70
2023/09/17 08:00:59;;;;;;;28.13;25.42;;;17.30;99.90;;;;;;6092701;23;20018;-70
2023/09/17 08:03:24;;;;;;;28.33;25.60;;;17.30;99.90;;;;;;6092066;23;20066;-70
2023/09/17 08:05:50;;;;;;;28.15;25.35;;;17.20;99.90;;;;;;6117284;23;20063;-70
2023/09/17 08:08:16;;;;;;;26.20;23.85;;;17.20;99.90;;;;;;6119084;23;20024;-69
2023/09/17 08:10:42;;;;;;;27.42;24.60;;;17.30;99.90;;;;;;6091251;23;20025;-70
2023/09/17 08:13:08;;;;;;;26.92;24.35;;;17.30;99.90;;;;;;6091913;23;20010;-70
2023/09/17 08:15:34;;;;;;;25.50;23.13;;;17.30;99.90;;;;;;6092007;23;20026;-70
2023/09/17 08:18:01;;;;;;;27.58;24.98;;;17.30;99.90;;;;;;6093239;23;20085;-69
2023/09/17 08:20:26;;;;;;;24.83;22.70;;;17.20;99.90;;;;;;6090036;23;20018;-70
2023/09/17 08:22:52;;;;;;;28.15;24.83;;;17.30;99.90;;;;;;6091916;23;20109;-70
2023/09/17 08:25:18;;;;;;;26.77;23.98;;;17.30;99.90;;;;;;6092265;23;20397;-69
2023/09/17 08:27:45;;;;;;;25.45;23.10;;;17.30;99.90;;;;;;6091447;23;20033;-69
2023/09/17 08:30:12;;;;;;;26.55;24.10;;;17.30;99.90;;;;;;6091573;23;20440;-70
2023/09/17 08:32:39;;;;;;;27.25;24.55;;;17.30;99.90;;;;;;6092766;23;20010;-70
2023/09/17 08:35:06;;;;;;;26.10;23.60;;;17.40;99.90;;;;;;6117733;23;20032;-69
2023/09/17 08:37:32;;;;;;;24.63;22.40;;;17.40;99.90;;;;;;6091292;23;20022;-69
2023/09/17 08:39:58;;;;;;;23.88;21.48;;;17.40;99.90;;;;;;6091960;23;20026;-70
2023/09/17 08:42:26;;;;;;;24.38;22.17;;;17.40;99.90;;;;;;6091504;23;20032;-70
2023/09/17 08:44:56;;;;;;;24.83;22.33;;;17.40;99.90;;;;;;6088109;23;20022;-70
2023/09/17 08:47:22;;;;;;;23.85;21.55;;;17.50;99.90;;;;;;6092888;23;20531;-70
2023/09/17 08:49:48;;;;;;;24.38;22.10;;;17.50;99.90;;;;;;6090779;23;20087;-69
2023/09/17 08:52:17;;;;;;;22.80;20.65;;;17.50;99.90;;;;;;6090576;23;20018;-69
2023/09/17 08:54:44;;;;;;;23.38;21.38;;;17.50;99.90;;;;;;6092493;23;20024;-70
2023/09/17 08:57:13;;;;;;;23.23;21.25;;;17.50;99.90;;;;;;6117032;23;20669;-70
2023/09/17 08:59:45;;;;;;;23.60;21.48;;;17.50;99.90;;;;;;6092026;23;20018;-70
2023/09/17 09:02:32;;;;;;;24.15;21.83;;;17.40;99.90;;;;;;6118209;23;20376;-70
2023/09/17 09:05:00;;;;;;;22.60;20.70;;;17.40;99.90;;;;;;6092055;23;20018;-70
2023/09/17 09:07:28;;;;;;;25.30;22.75;;;17.50;99.90;;;;;;6092230;23;20014;-69
2023/09/17 09:09:54;;;;;;;23.42;20.95;;;17.40;99.90;;;;;;6090082;23;20072;-70
2023/09/17 09:12:21;;;;;;;24.73;21.17;;;17.50;99.90;;;;;;6117802;23;20010;-70
2023/09/17 09:14:47;;;;;;;24.30;22.20;;;17.60;99.90;;;;;;6117924;23;20028;-69
2023/09/17 09:17:13;;;;;;;24.23;21.67;;;17.70;99.90;;;;;;6091741;23;20041;-70
2023/09/17 09:19:40;;;;;;;23.33;21.13;;;17.80;99.90;;;;;;6091293;23;20013;-70
2023/09/17 09:22:06;;;;;;;22.83;20.83;;;17.90;99.90;;;;;;6091402;23;20037;-70
2023/09/17 09:24:45;;;;;;;21.60;19.50;;;18.00;99.90;;;;;;6117891;23;20467;-70
2023/09/17 09:27:11;;;;;;;21.55;19.55;;;18.10;99.90;;;;;;6091958;23;20455;-69
2023/09/17 09:29:37;;;;;;;19.90;18.10;;;18.10;99.90;;;;;;6090440;23;20081;-70
2023/09/17 09:32:04;;;;;;;20.98;18.92;;;18.20;99.90;;;;;;6090844;23;20451;-70
2023/09/17 09:34:30;;;;;;;20.50;18.40;;;18.20;99.90;;;;;;6091827;23;20437;-70
2023/09/17 09:36:56;;;;;;;19.98;18.00;;;18.40;99.90;;;;;;6092222;23;20014;-70
2023/09/17 09:39:22;;;;;;;19.88;17.92;;;18.50;99.90;;;;;;6116876;23;20014;-70
2023/09/17 09:41:48;;;;;;;19.50;17.60;;;18.50;99.90;;;;;;6091103;23;20018;-70
2023/09/17 09:44:14;;;;;;;20.00;18.23;;;18.60;99.90;;;;;;6092553;23;20014;-70
2023/09/17 09:46:40;;;;;;;21.25;19.13;;;18.70;99.90;;;;;;6092002;23;20021;-70
2023/09/17 09:49:06;;;;;;;20.23;18.35;;;18.80;99.90;;;;;;6089834;23;20088;-70
2023/09/17 09:51:35;;;;;;;19.88;17.98;;;18.80;99.90;;;;;;6091487;23;20117;-70
2023/09/17 09:54:02;;;;;;;20.73;18.77;;;18.80;99.90;;;;;;6118528;23;20340;-70
2023/09/17 09:56:28;;;;;;;21.65;19.40;;;18.90;99.90;;;;;;6091758;23;20025;-70
2023/09/17 09:58:55;;;;;;;21.92;19.92;;;18.80;99.90;;;;;;6117006;23;20057;-70
2023/09/17 10:01:21;;;;;;;21.08;19.08;;;18.80;99.90;;;;;;6090742;23;20452;-70
2023/09/17 10:03:47;;;;;;;21.83;20.02;;;18.80;99.90;;;;;;6092374;23;20058;-70
2023/09/17 10:06:14;;;;;;;22.95;20.85;;;18.80;99.90;;;;;;6089928;23;20014;-70
2023/09/17 10:08:40;;;;;;;20.77;18.75;;;18.90;99.90;;;;;;6090342;23;20429;-70
2023/09/17 10:11:07;;;;;;;21.83;19.77;;;18.80;99.90;;;;;;6090970;23;20025;-70
2023/09/17 10:13:33;;;;;;;21.27;19.38;;;18.80;99.90;;;;;;6091431;23;20014;-70
2023/09/17 10:16:01;;;;;;;20.60;18.58;;;18.80;99.90;;;;;;6116580;23;20029;-70
2023/09/17 10:18:28;;;;;;;19.98;17.98;;;18.70;99.90;;;;;;6091690;23;20018;-70
2023/09/17 10:20:54;;;;;;;21.52;19.20;;;18.70;99.90;;;;;;6090577;23;20018;-69
2023/09/17 10:23:23;;;;;;;20.52;18.63;;;18.60;99.90;;;;;;6091723;23;20440;-70
2023/09/17 10:25:50;;;;;;;20.10;18.30;;;18.50;99.90;;;;;;6092015;23;20014;-70
2023/09/17 10:28:16;;;;;;;20.40;18.65;;;18.50;99.90;;;;;;6092571;23;20014;-70
2023/09/17 10:30:45;;;;;;;21.65;19.52;;;18.40;99.90;;;;;;6090229;23;20017;-71
2023/09/17 10:33:13;;;;;;;20.25;18.33;;;18.30;99.90;;;;;;6089788;23;20018;-70
2023/09/17 10:35:39;;;;;;;23.08;20.88;;;18.30;99.90;;;;;;6067001;23;20057;-70
2023/09/17 10:38:07;;;;;;;22.52;20.40;;;18.20;99.90;;;;;;6092358;23;20076;-70
2023/09/17 10:40:34;;;;;;;22.10;20.10;;;18.10;99.90;;;;;;6090319;23;20013;-69
2023/09/17 10:43:02;;;;;;;24.58;22.38;;;18.20;99.90;;;;;;6118157;23;20313;-69
2023/09/17 10:45:32;;;;;;;24.35;21.83;;;18.10;99.90;;;;;;6090401;23;20022;-70
2023/09/17 10:48:01;;;;;;;25.25;22.70;;;18.30;99.90;;;;;;6092494;23;20071;-69
2023/09/17 10:50:29;;;;;;;27.58;24.98;;;18.30;99.90;;;;;;6091610;23;20017;-69
2023/09/17 10:52:55;;;;;;;24.73;22.42;;;18.40;99.90;;;;;;6119724;23;20336;-70
2023/09/17 10:55:22;;;;;;;25.67;23.38;;;18.50;99.90;;;;;;6118559;23;20098;-70
2023/09/17 10:58:01;;;;;;;27.33;24.63;;;18.50;99.90;;;;;;6119011;23;20314;-69
2023/09/17 11:00:31;;;;;;;28.60;25.75;;;18.50;99.90;;;;;;6091979;23;20467;-70
2023/09/17 11:02:59;;;;;;;27.90;25.17;;;18.50;99.90;;;;;;6119166;23;20013;-70
2023/09/17 11:05:28;;;;;;;27.92;24.90;;;18.50;99.90;;;;;;6118169;23;20026;-70
2023/09/17 11:08:00;;;;;;;27.83;25.23;;;18.50;99.90;;;;;;6093326;23;20028;-70
2023/09/17 11:10:26;;;;;;;28.85;26.33;;;18.50;99.90;;;;;;6092023;23;20014;-70
2023/09/17 11:12:51;;;;;;;27.52;25.02;;;18.50;99.90;;;;;;6092857;23;20014;-70
2023/09/17 11:15:18;;;;;;;28.17;25.35;;;18.60;99.90;;;;;;6119292;23;20014;-70
2023/09/17 11:17:47;;;;;;;28.08;25.58;;;18.80;99.90;;;;;;6092413;23;20512;-70
2023/09/17 11:20:16;;;;;;;27.52;24.92;;;18.60;99.90;;;;;;6091904;23;20064;-70
2023/09/17 11:22:43;;;;;;;28.38;25.83;;;18.70;99.90;;;;;;6092373;23;20018;-70
2023/09/17 11:25:12;;;;;;;29.25;26.40;;;18.70;99.90;;;;;;6118507;23;20376;-70
2023/09/17 11:27:47;;;;;;;28.27;25.58;;;18.80;99.90;;;;;;6092758;23;20129;-70
2023/09/17 11:30:17;;;;;;;28.25;25.15;;;18.90;99.90;;;;;;6091383;23;20091;-70
2023/09/17 11:33:10;;;;;;;28.55;25.70;;;19.00;99.90;;;;;;6118106;23;20089;-70
2023/09/17 11:35:36;;;;;;;27.77;25.08;;;19.30;99.90;;;;;;6092461;23;20026;-70
2023/09/17 11:38:02;;;;;;;25.42;23.23;;;19.50;99.90;;;;;;6068539;23;20025;-70
2023/09/17 11:40:28;;;;;;;25.63;23.25;;;19.60;99.90;;;;;;6117551;23;20014;-70
2023/09/17 11:42:53;;;;;;;24.77;22.45;;;19.70;99.90;;;;;;6092546;23;20021;-70
2023/09/17 11:45:20;;;;;;;26.27;23.83;;;19.70;99.90;;;;;;6118146;23;20445;-70
2023/09/17 11:47:45;;;;;;;25.58;23.38;;;19.70;99.90;;;;;;6091416;23;20068;-69
2023/09/17 11:50:13;;;;;;;25.05;22.83;;;19.70;99.90;;;;;;6118759;23;20018;-69
2023/09/17 11:52:41;;;;;;;26.65;24.20;;;19.70;99.90;;;;;;6117828;23;20018;-70
2023/09/17 11:55:11;;;;;;;23.23;21.02;;;19.70;99.90;;;;;;6092602;23;20029;-70
2023/09/17 11:57:37;;;;;;;24.02;21.80;;;19.70;99.90;;;;;;6092589;23;20026;-69
2023/09/17 12:00:09;;;;;;;22.75;20.65;;;19.80;99.90;;;;;;6091686;23;20639;-69
2023/09/17 12:02:36;;;;;;;21.33;19.20;;;19.80;99.90;;;;;;6090981;23;20018;-70
2023/09/17 12:05:04;;;;;;;21.90;19.90;;;19.90;99.90;;;;;;6118867;23;20340;-70
2023/09/17 12:07:30;;;;;;;19.98;18.17;;;20.10;99.90;;;;;;6118963;23;20010;-70
2023/09/17 12:10:05;;;;;;;20.00;18.10;;;20.30;99.90;;;;;;6091671;23;20343;-69
2023/09/17 12:12:35;;;;;;;19.70;17.88;;;20.40;99.90;;;;;;6091947;23;20067;-70
2023/09/17 12:15:06;;;;;;;19.20;17.38;;;20.50;99.90;;;;;;6118187;23;20025;-70
2023/09/17 12:17:33;;;;;;;17.98;16.30;;;20.60;99.90;;;;;;6118355;23;20029;-69
2023/09/17 12:20:12;;;;;;;17.67;15.88;;;20.60;99.90;;;;;;6091757;23;20025;-70
2023/09/17 12:22:38;;;;;;;17.95;16.27;;;20.70;99.90;;;;;;6091372;23;20021;-70
2023/09/17 12:25:13;;;;;;;17.20;15.70;;;20.70;99.90;;;;;;6092895;23;20026;-69
2023/09/17 12:27:46;;;;;;;17.88;16.08;;;20.70;99.90;;;;;;6092263;23;20141;-69